Time,TemperatureF,DewpointF,PressureIn,WindDirection,WindDirectionDegrees,WindSpeedMPH,WindSpeedGustMPH,Humidity,HourlyPrecipIn,Conditions,Clouds,dailyrainin,SoftwareType,DateUTC
2013-06-10 00:00:00,56.5,45.6,29.67,North,0,0.7,1.3,67,0.00,,,0.00,WUHU216HW,2013-06-10 07:00:00,
2013-06-10 00:05:00,56.2,45.4,29.67,North,355,0.6,0.7,67,0.00,,,0.00,WUHU216HW,2013-06-10 07:05:00,
2013-06-10 00:10:00,56.2,45.7,29.67,NNW,338,2.9,2.9,68,0.00,,,0.00,WUHU216HW,2013-06-10 07:10:00,
2013-06-10 00:15:00,56.0,45.5,29.67,North,2,1.8,2.9,68,0.00,,,0.00,WUHU216HW,2013-06-10 07:15:00,
2013-06-10 00:20:00,55.8,45.4,29.67,North,3,2.0,2.9,68,0.00,,,0.00,WUHU216HW,2013-06-10 07:20:00,
2013-06-10 00:25:00,55.6,45.6,29.67,North,351,3.6,3.8,69,0.00,,,0.00,WUHU216HW,2013-06-10 07:25:00,
2013-06-10 00:30:00,55.4,45.5,29.67,North,0,2.9,3.8,69,0.00,,,0.00,WUHU216HW,2013-06-10 07:30:00,
2013-06-10 00:35:00,55.3,45.3,29.67,North,0,0.2,3.4,69,0.00,,,0.00,WUHU216HW,2013-06-10 07:35:00,
2013-06-10 00:40:00,55.3,45.3,29.67,North,0,0.2,2.5,69,0.00,,,0.00,WUHU216HW,2013-06-10 07:40:00,
2013-06-10 00:45:00,55.3,45.3,29.67,NNE,23,3.1,3.1,69,0.00,,,0.00,WUHU216HW,2013-06-10 07:45:00,
2013-06-10 00:50:00,55.1,45.1,29.67,NNE,23,2.1,3.1,69,0.00,,,0.00,WUHU216HW,2013-06-10 07:50:00,
2013-06-10 00:55:00,55.1,45.5,29.67,North,0,1.1,3.1,70,0.00,,,0.00,WUHU216HW,2013-06-10 07:55:00,
2013-06-10 01:00:00,55.1,45.5,29.67,North,0,1.1,1.8,70,0.00,,,0.00,WUHU216HW,2013-06-10 08:00:00,
2013-06-10 01:05:00,54.9,45.4,29.67,North,0,0.2,1.1,70,0.00,,,0.00,WUHU216HW,2013-06-10 08:05:00,
2013-06-10 01:10:00,54.9,45.4,29.67,North,0,0.2,1.1,70,0.00,,,0.00,WUHU216HW,2013-06-10 08:10:00,
2013-06-10 01:15:00,54.9,45.4,29.67,North,0,0.2,0.2,70,0.00,,,0.00,WUHU216HW,2013-06-10 08:15:00,
2013-06-10 01:16:00,54.9,45.4,29.67,North,0,0.2,0.2,70,0.00,,,0.00,WUHU216HW,2013-06-10 08:16:00,
2013-06-10 01:20:00,54.9,45.4,29.67,North,0,0.2,0.2,70,0.00,,,0.00,WUHU216HW,2013-06-10 08:20:00,
2013-06-10 01:25:00,54.9,45.4,29.67,North,0,0.2,0.2,70,0.00,,,0.00,WUHU216HW,2013-06-10 08:25:00,
2013-06-10 06:38:00,52.7,45.0,29.63,NW,315,3.4,3.4,75,0.00,,,0.00,WUHU216HW,2013-06-10 13:38:00,
2013-06-10 06:41:00,52.7,44.7,29.63,North,0,0.4,0.4,74,0.00,,,0.00,WUHU216HW,2013-06-10 13:41:00,
2013-06-10 06:43:00,52.7,44.7,29.63,North,0,0.4,3.4,74,0.00,,,0.00,WUHU216HW,2013-06-10 13:43:00,
2013-06-10 06:48:00,52.7,44.7,29.63,North,0,0.4,3.4,74,0.00,,,0.00,WUHU216HW,2013-06-10 13:48:00,
2013-06-10 06:59:00,53.1,45.0,29.63,NNE,23,1.3,1.3,74,0.00,,,0.00,WUHU216HW,2013-06-10 13:59:00,
2013-06-10 07:00:00,53.1,45.0,29.63,NNE,23,1.3,1.3,74,0.00,,,0.00,WUHU216HW,2013-06-10 14:00:00,
2013-06-10 07:05:00,53.1,45.0,29.63,NNE,23,1.3,1.3,74,0.00,,,0.00,WUHU216HW,2013-06-10 14:05:00,
2013-06-10 08:00:00,55.4,46.9,29.63,NNW,338,1.6,1.6,73,0.00,,,0.00,WUHU216HW,2013-06-10 15:00:00,
2013-06-10 08:05:00,55.6,47.1,29.63,North,0,2.2,2.7,73,0.00,,,0.00,WUHU216HW,2013-06-10 15:05:00,
2013-06-10 08:10:00,55.8,47.3,29.63,North,0,1.3,2.7,73,0.00,,,0.00,WUHU216HW,2013-06-10 15:10:00,
2013-06-10 08:15:00,56.5,47.6,29.63,North,8,1.5,1.8,72,0.00,,,0.00,WUHU216HW,2013-06-10 15:15:00,
2013-06-10 08:20:00,57.1,47.7,29.62,North,0,2.2,2.5,71,0.00,,,0.00,WUHU216HW,2013-06-10 15:20:00,
2013-06-10 08:25:00,57.1,47.7,29.63,North,5,3.2,4.0,71,0.00,,,0.00,WUHU216HW,2013-06-10 15:25:00,
2013-06-10 08:30:00,57.2,47.5,29.63,NE,45,2.2,4.5,70,0.00,,,0.00,WUHU216HW,2013-06-10 15:30:00,
2013-06-10 08:35:00,57.4,47.7,29.63,North,0,2.5,4.5,70,0.00,,,0.00,WUHU216HW,2013-06-10 15:35:00,
2013-06-10 08:40:00,57.4,47.7,29.63,North,0,2.5,2.5,70,0.00,,,0.00,WUHU216HW,2013-06-10 15:40:00,
2013-06-10 08:45:00,57.4,47.7,29.63,North,0,2.5,2.5,70,0.00,,,0.00,WUHU216HW,2013-06-10 15:45:00,
2013-06-10 08:46:00,57.4,47.7,29.63,North,0,2.5,2.5,70,0.00,,,0.00,WUHU216HW,2013-06-10 15:46:00,
2013-06-10 08:50:00,57.4,47.7,29.63,North,0,2.5,2.5,70,0.00,,,0.00,WUHU216HW,2013-06-10 15:50:00,
2013-06-10 08:55:00,57.4,47.7,29.63,North,0,2.5,2.5,70,0.00,,,0.00,WUHU216HW,2013-06-10 15:55:00,
2013-06-10 13:05:00,70.2,51.2,29.59,WNW,293,4.5,4.5,51,0.00,,,0.00,WUHU216HW,2013-06-10 20:05:00,
2013-06-10 13:10:00,70.2,51.2,29.59,WNW,293,4.5,4.5,51,0.00,,,0.00,WUHU216HW,2013-06-10 20:10:00,
2013-06-10 14:00:00,72.4,50.9,29.57,WNW,293,1.1,1.1,47,0.00,,,0.00,WUHU216HW,2013-06-10 21:00:00,
2013-06-10 14:05:00,72.2,50.8,29.57,NE,49,1.6,4.7,47,0.00,,,0.00,WUHU216HW,2013-06-10 21:05:00,
2013-06-10 14:10:00,72.4,50.3,29.57,North,359,3.2,4.7,46,0.00,,,0.00,WUHU216HW,2013-06-10 21:10:00,
2013-06-10 14:15:00,72.9,50.8,29.58,North,0,2.7,4.5,46,0.00,,,0.00,WUHU216HW,2013-06-10 21:15:00,
2013-06-10 14:20:00,72.2,50.1,29.57,NNW,339,3.5,6.0,46,0.00,,,0.00,WUHU216HW,2013-06-10 21:20:00,
2013-06-10 14:25:00,72.7,50.1,29.57,WSW,248,2.7,6.0,45,0.00,,,0.00,WUHU216HW,2013-06-10 21:25:00,
2013-06-10 14:30:00,73.1,50.9,29.57,North,1,2.9,4.3,46,0.00,,,0.00,WUHU216HW,2013-06-10 21:30:00,
2013-06-10 14:35:00,72.7,50.1,29.57,North,0,3.8,4.3,45,0.00,,,0.00,WUHU216HW,2013-06-10 21:35:00,
2013-06-10 14:40:00,72.7,50.1,29.57,North,0,3.8,3.8,45,0.00,,,0.00,WUHU216HW,2013-06-10 21:40:00,
2013-06-10 14:45:00,72.7,50.1,29.57,NNW,338,3.4,3.8,45,0.00,,,0.00,WUHU216HW,2013-06-10 21:45:00,
2013-06-10 14:50:00,72.7,50.1,29.57,North,9,2.1,3.8,45,0.00,,,0.00,WUHU216HW,2013-06-10 21:50:00,
2013-06-10 14:55:00,73.3,49.3,29.56,WNW,293,1.3,3.8,43,0.00,,,0.00,WUHU216HW,2013-06-10 21:55:00,
2013-06-10 15:00:00,73.6,50.9,29.56,NNE,23,3.4,3.4,45,0.00,,,0.00,WUHU216HW,2013-06-10 22:00:00,
2013-06-10 15:05:00,74.0,50.0,29.56,NNW,338,2.2,3.4,43,0.00,,,0.00,WUHU216HW,2013-06-10 22:05:00,
2013-06-10 15:10:00,74.0,50.0,29.56,NNW,338,2.2,3.4,43,0.00,,,0.00,WUHU216HW,2013-06-10 22:10:00,
2013-06-10 15:15:00,73.8,48.6,29.56,SSW,192,1.8,4.0,41,0.00,,,0.00,WUHU216HW,2013-06-10 22:15:00,
2013-06-10 15:20:00,73.8,49.2,29.56,North,0,2.0,4.0,42,0.00,,,0.00,WUHU216HW,2013-06-10 22:20:00,
2013-06-10 15:25:00,74.2,49.0,29.56,North,0,0.4,3.4,41,0.00,,,0.00,WUHU216HW,2013-06-10 22:25:00,
2013-06-10 15:30:00,74.9,49.0,29.56,ENE,68,0.7,3.4,40,0.00,,,0.00,WUHU216HW,2013-06-10 22:30:00,
2013-06-10 15:35:00,74.9,47.5,29.55,South,180,0.4,2.7,38,0.00,,,0.00,WUHU216HW,2013-06-10 22:35:00,
2013-06-10 15:40:00,74.9,47.5,29.56,South,180,0.4,2.7,38,0.00,,,0.00,WUHU216HW,2013-06-10 22:40:00,
2013-06-10 15:45:00,75.2,47.8,29.56,West,270,2.2,2.2,38,0.00,,,0.00,WUHU216HW,2013-06-10 22:45:00,
2013-06-10 15:50:00,75.1,46.9,29.55,West,270,2.0,2.2,37,0.00,,,0.00,WUHU216HW,2013-06-10 22:50:00,
2013-06-10 15:55:00,75.2,47.1,29.55,NNW,338,2.5,2.5,37,0.00,,,0.00,WUHU216HW,2013-06-10 22:55:00,
2013-06-10 16:00:00,75.2,45.5,29.55,WNW,293,2.5,2.5,35,0.00,,,0.00,WUHU216HW,2013-06-10 23:00:00,
2013-06-10 16:05:00,75.4,47.3,29.55,North,0,2.2,2.5,37,0.00,,,0.00,WUHU216HW,2013-06-10 23:05:00,
2013-06-10 16:10:00,75.2,47.1,29.55,NNE,23,6.3,6.3,37,0.00,,,0.00,WUHU216HW,2013-06-10 23:10:00,
2013-06-10 16:15:00,74.5,46.5,29.55,NNE,23,2.5,6.3,37,0.00,,,0.00,WUHU216HW,2013-06-10 23:15:00,
2013-06-10 16:20:00,74.5,46.5,29.55,NNE,23,2.5,6.3,37,0.00,,,0.00,WUHU216HW,2013-06-10 23:20:00,
2013-06-10 16:25:00,74.3,47.0,29.55,North,0,3.6,3.6,38,0.00,,,0.00,WUHU216HW,2013-06-10 23:25:00,
2013-06-10 16:30:00,74.2,46.1,29.55,North,353,1.3,3.6,37,0.00,,,0.00,WUHU216HW,2013-06-10 23:30:00,
2013-06-10 16:35:00,73.8,46.5,29.55,North,0,4.0,4.0,38,0.00,,,0.00,WUHU216HW,2013-06-10 23:35:00,
2013-06-10 16:40:00,73.8,47.3,29.55,North,357,2.6,4.0,39,0.00,,,0.00,WUHU216HW,2013-06-10 23:40:00,
2013-06-10 16:45:00,73.8,47.3,29.55,SW,225,0.4,4.0,39,0.00,,,0.00,WUHU216HW,2013-06-10 23:45:00,
2013-06-10 16:50:00,73.8,47.3,29.55,SW,225,0.4,0.4,39,0.00,,,0.00,WUHU216HW,2013-06-10 23:50:00,
2013-06-10 17:00:00,77.4,49.8,29.54,SW,225,0.2,0.2,38,0.00,,,0.00,WUHU216HW,2013-06-11 00:00:00,
2013-06-10 17:05:00,77.4,49.8,29.54,SW,225,0.2,0.2,38,0.00,,,0.00,WUHU216HW,2013-06-11 00:05:00,
2013-06-10 18:00:00,80.3,49.2,29.53,West,270,3.6,3.6,34,0.00,,,0.00,WUHU216HW,2013-06-11 01:00:00,
2013-06-10 18:05:00,79.9,48.2,29.53,SSE,158,3.6,3.6,33,0.00,,,0.00,WUHU216HW,2013-06-11 01:05:00,
2013-06-10 18:10:00,77.6,47.6,29.53,SSE,158,6.0,6.0,35,0.00,,,0.00,WUHU216HW,2013-06-11 01:10:00,
2013-06-10 18:15:00,77.6,47.6,29.53,SSE,158,6.0,6.0,35,0.00,,,0.00,WUHU216HW,2013-06-11 01:15:00,
2013-06-10 18:20:00,73.8,47.3,29.52,SSE,168,4.8,6.0,39,0.00,,,0.00,WUHU216HW,2013-06-11 01:20:00,
2013-06-10 18:21:00,73.8,47.3,29.52,South,180,4.7,4.7,39,0.00,,,0.00,WUHU216HW,2013-06-11 01:21:00,
2013-06-10 18:25:00,73.8,47.3,29.52,South,180,4.7,6.0,39,0.00,,,0.00,WUHU216HW,2013-06-11 01:25:00,
2013-06-10 18:30:00,73.8,47.3,29.52,South,180,4.7,4.7,39,0.00,,,0.00,WUHU216HW,2013-06-11 01:30:00,
2013-06-10 19:00:00,70.6,46.9,29.52,SSW,203,0.4,0.4,43,0.00,,,0.00,WUHU216HW,2013-06-11 02:00:00,
2013-06-10 19:05:00,70.4,47.4,29.52,WSW,248,3.4,3.4,44,0.00,,,0.00,WUHU216HW,2013-06-11 02:05:00,
2013-06-10 19:10:00,70.4,47.4,29.52,WSW,248,3.4,3.4,44,0.00,,,0.00,WUHU216HW,2013-06-11 02:10:00,
2013-06-10 19:15:00,70.4,47.4,29.52,WSW,248,3.4,3.4,44,0.00,,,0.00,WUHU216HW,2013-06-11 02:15:00,
2013-06-10 19:20:00,69.7,47.3,29.52,SSE,158,2.3,3.4,45,0.00,,,0.00,WUHU216HW,2013-06-11 02:20:00,
2013-06-10 19:25:00,69.7,47.3,29.52,SSE,158,1.8,3.4,45,0.00,,,0.00,WUHU216HW,2013-06-11 02:25:00,
2013-06-10 19:30:00,69.7,47.3,29.52,SSE,158,1.8,1.8,45,0.00,,,0.00,WUHU216HW,2013-06-11 02:30:00,
2013-06-10 19:35:00,68.9,46.6,29.52,SSE,158,1.3,1.8,45,0.00,,,0.00,WUHU216HW,2013-06-11 02:35:00,
2013-06-10 19:40:00,68.8,46.4,29.52,WSW,244,1.1,1.8,45,0.00,,,0.00,WUHU216HW,2013-06-11 02:40:00,
2013-06-10 19:45:00,68.4,46.2,29.52,SSE,161,1.8,2.7,45,0.00,,,0.00,WUHU216HW,2013-06-11 02:45:00,
2013-06-10 19:50:00,68.2,46.0,29.52,West,270,1.4,2.7,45,0.00,,,0.00,WUHU216HW,2013-06-11 02:50:00,
2013-06-10 19:55:00,68.0,45.8,29.52,SSE,158,2.5,2.5,45,0.00,,,0.00,WUHU216HW,2013-06-11 02:55:00,
2013-06-10 20:00:00,68.0,46.5,29.52,SSE,160,2.0,2.5,46,0.00,,,0.00,WUHU216HW,2013-06-11 03:00:00,
2013-06-10 20:05:00,68.0,46.5,29.52,SSE,158,1.1,2.5,46,0.00,,,0.00,WUHU216HW,2013-06-11 03:05:00,
2013-06-10 20:10:00,67.5,46.5,29.52,North,0,0.0,1.1,47,0.00,,,0.00,WUHU216HW,2013-06-11 03:10:00,
2013-06-10 20:15:00,67.3,46.4,29.52,SSE,158,0.9,1.1,47,0.00,,,0.00,WUHU216HW,2013-06-11 03:15:00,
2013-06-10 20:20:00,67.1,46.2,29.52,SSE,158,0.9,0.9,47,0.00,,,0.00,WUHU216HW,2013-06-11 03:20:00,
2013-06-10 20:25:00,67.1,46.2,29.52,SW,225,0.0,0.9,47,0.00,,,0.00,WUHU216HW,2013-06-11 03:25:00,
2013-06-10 20:30:00,67.1,46.2,29.52,SW,225,0.0,0.0,47,0.00,,,0.00,WUHU216HW,2013-06-11 03:30:00,
2013-06-10 20:35:00,66.2,47.2,29.52,SW,225,1.6,2.2,50,0.00,,,0.00,WUHU216HW,2013-06-11 03:35:00,
2013-06-10 20:40:00,65.9,46.8,29.52,WSW,248,1.8,2.2,50,0.00,,,0.00,WUHU216HW,2013-06-11 03:40:00,
2013-06-10 20:45:00,65.5,46.9,29.53,SE,135,2.5,2.5,51,0.00,,,0.00,WUHU216HW,2013-06-11 03:45:00,
2013-06-10 20:50:00,65.2,47.1,29.52,SW,234,1.9,3.1,52,0.00,,,0.00,WUHU216HW,2013-06-11 03:50:00,
2013-06-10 20:55:00,65.0,46.9,29.52,WNW,293,3.6,3.6,52,0.00,,,0.00,WUHU216HW,2013-06-11 03:55:00,
2013-06-10 21:00:00,64.8,46.7,29.53,WSW,248,1.3,3.6,52,0.00,,,0.00,WUHU216HW,2013-06-11 04:00:00,
2013-06-10 21:01:00,64.8,46.7,29.53,WSW,248,1.3,3.6,52,0.00,,,0.00,WUHU216HW,2013-06-11 04:01:00,
2013-06-10 21:06:00,64.3,46.6,29.53,WSW,248,0.4,1.3,53,0.00,,,0.00,WUHU216HW,2013-06-11 04:06:00,
2013-06-10 21:11:00,63.9,46.8,29.53,NW,315,1.1,1.1,54,0.00,,,0.00,WUHU216HW,2013-06-11 04:11:00,
2013-06-10 21:17:00,63.9,46.8,29.53,NW,315,1.1,1.1,54,0.00,,,0.00,WUHU216HW,2013-06-11 04:17:00,
2013-06-10 21:22:00,63.4,46.8,29.54,WNW,293,1.1,1.1,55,0.00,,,0.00,WUHU216HW,2013-06-11 04:22:00,
2013-06-10 21:27:00,62.8,46.8,29.54,WNW,293,1.1,1.1,56,0.00,,,0.00,WUHU216HW,2013-06-11 04:27:00,
2013-06-10 21:32:00,62.8,46.8,29.54,NW,315,0.0,1.1,56,0.00,,,0.00,WUHU216HW,2013-06-11 04:32:00,
2013-06-10 21:37:00,62.3,47.4,29.54,WSW,248,1.6,1.6,58,0.00,,,0.00,WUHU216HW,2013-06-11 04:37:00,
2013-06-10 21:42:00,62.3,47.4,29.55,WSW,248,1.6,1.6,58,0.00,,,0.00,WUHU216HW,2013-06-11 04:42:00,
2013-06-10 21:47:00,61.7,47.8,29.55,WNW,288,0.4,1.8,60,0.00,,,0.00,WUHU216HW,2013-06-11 04:47:00,
2013-06-10 21:52:00,61.6,47.2,29.55,West,270,0.0,1.8,59,0.00,,,0.00,WUHU216HW,2013-06-11 04:52:00,
2013-06-10 21:57:00,61.4,47.9,29.56,NW,315,0.0,0.4,61,0.00,,,0.00,WUHU216HW,2013-06-11 04:57:00,
2013-06-10 22:02:00,61.2,47.7,29.56,NW,315,0.0,0.4,61,0.00,,,0.00,WUHU216HW,2013-06-11 05:02:00,
2013-06-10 22:07:00,61.2,47.7,29.56,NW,315,1.1,1.1,61,0.00,,,0.00,WUHU216HW,2013-06-11 05:07:00,
2013-06-10 22:12:00,60.8,47.8,29.56,NNW,338,0.0,1.1,62,0.00,,,0.00,WUHU216HW,2013-06-11 05:12:00,
2013-06-10 22:17:00,60.8,48.3,29.56,North,0,0.0,1.1,63,0.00,,,0.00,WUHU216HW,2013-06-11 05:17:00,
2013-06-10 22:22:00,60.5,47.4,29.57,North,0,0.0,0.0,62,0.00,,,0.00,WUHU216HW,2013-06-11 05:22:00,
2013-06-10 22:27:00,60.5,47.4,29.57,North,0,0.0,0.0,62,0.00,,,0.00,WUHU216HW,2013-06-11 05:27:00,
2013-06-10 22:32:00,60.5,47.4,29.57,North,0,0.0,0.0,62,0.00,,,0.00,WUHU216HW,2013-06-11 05:32:00,
2013-06-10 22:37:00,60.1,47.5,29.57,North,0,0.0,0.0,63,0.00,,,0.00,WUHU216HW,2013-06-11 05:37:00,
2013-06-10 22:42:00,59.9,47.4,29.57,North,0,0.0,0.0,63,0.00,,,0.00,WUHU216HW,2013-06-11 05:42:00,
2013-06-10 22:47:00,59.8,47.2,29.57,North,0,0.0,0.0,63,0.00,,,0.00,WUHU216HW,2013-06-11 05:47:00,
2013-06-10 22:52:00,59.8,47.2,29.57,North,0,0.0,0.0,63,0.00,,,0.00,WUHU216HW,2013-06-11 05:52:00,
2013-06-10 22:57:00,59.8,47.2,29.57,North,0,0.0,0.0,63,0.00,,,0.00,WUHU216HW,2013-06-11 05:57:00,
2013-06-10 23:02:00,59.8,47.2,29.57,North,0,0.0,0.0,63,0.00,,,0.00,WUHU216HW,2013-06-11 06:02:00,
2013-06-10 23:05:00,59.8,47.2,29.57,North,0,0.0,0.0,63,0.00,,,0.00,WUHU216HW,2013-06-11 06:05:00,
2013-06-10 23:07:00,59.8,47.2,29.57,North,0,0.0,0.0,63,0.00,,,0.00,WUHU216HW,2013-06-11 06:07:00,
2013-06-10 23:12:00,59.8,47.2,29.57,North,0,0.0,0.0,63,0.00,,,0.00,WUHU216HW,2013-06-11 06:12:00,